首页
METAR-TAF:

METAR-TAF

机场 :

俄斯特拉发, 捷克共和国

纬度: 49-41N, 经度: 018-07E, 海拔: 256米

当前天气观测

该预报发布于33分钟前的17:00 UTC
风速6节,风向北转东北
温度 7°C
湿度 87%
气压 1015 hPa
能見度: 8000

METAR: LKMT 201700Z 02006KT 8000 NSC 07/05 Q1015 NOSIG

时间: 18:33 (17:33 UTC)

预报

该预报发布于6小时和33分钟前的11:00 UTC
预报有效从20日的 12点(UTC)到 21日的 18点(UTC)
风速7节,风向北转东北
能見度: 7000
成为
从 20日的 21点(UTC)到 20日的 23点(UTC)
能見度: 5000
多云层高于2000英尺
轻雾
短暂存在
从 21日的 02点(UTC)到 21日的 07点(UTC)
能見度: 2500
多云层高于1400英尺
轻雾
短暂存在
从 21日的 07点(UTC)到 21日的 15点(UTC)
能見度: 1300
阴天层高于700英尺
雨, 轻雾
成为
从 21日的 16点(UTC)到 21日的 18点(UTC)
能见度10公里或以上
1500米以下无云,无积雨云

TAF: LKMT 201100Z 2012/2118 02007KT 7000 NSC BECMG 2021/2023 5000 BR BKN020 TEMPO 2102/2107 2500 BR BKN014 TEMPO 2107/2115 1300 RA BR OVC007 BECMG 2116/2118 CAVOK

超过4000个机场的气象观测和天气预报(METAR&TAF报告)。

可查询的气象台以黄色和红色小点在地图上表示。

将鼠标移到小点上方,可查看气象台名称。

然后点击查看天气观测和预报。

如需切换地图:点击带黑十字的绿色按钮放大地图;点击带横线的绿色按钮缩小地图;或者点击绿色箭头查看邻近地区的地图。


METAR-TAF: